THY59E LTFM-VABB
Flight info
| Callsign | THY59E |
|---|---|
| Flight time | N/A |
| Altitude | 35000 |
| Route | ATBES DCT FM020 DCT FM021 DCT FM074 DCT FM044 DCT LIDMU DCT NOTVI DCT VICEN DCT ASMAP UL333 LATGA DCT TBN UN61 NOLGA DCT BARAD M747 SULEL N449 DUKAN B449 HOFNI/N0487F370 B449 RANAH L750 ZB G202 RK P628 VIKIT Z8 AAE/N0493F380 R458 BVR/N0496F370 R458 BOFIN POKON2A |
| Aircraft | B77W/H-SDE1E2E3FGHIJ2J3J4J5M1RWXY/LB1D1 |
Departure
| Time | 2026-05-06 09:40 |
|---|---|
| Airport | İstanbul Airport (LTFM) |
Arrival
| Time | N/A |
|---|---|
| Airport | Chhatrapati Shivaji Maharaj International Airport (VABB) |
| Time | Latitude | Longitude | Altitude | Speed | Heading |
|---|---|---|---|---|---|
| 2026-05-06 09:03 | 41.27494 | 28.74872 | 339 ft | 0 kts | 359° |
| 2026-05-06 09:30 | 41.27481 | 28.74872 | 334 ft | 4 kts | 359° |
| 2026-05-06 09:31 | 41.27453 | 28.74873 | 333 ft | 4 kts | 359° |
| 2026-05-06 09:31 | 41.27434 | 28.74873 | 333 ft | 4 kts | 348° |
| 2026-05-06 09:31 | 41.27420 | 28.74879 | 333 ft | 4 kts | 301° |
| 2026-05-06 09:31 | 41.27416 | 28.74900 | 333 ft | 4 kts | 269° |
| 2026-05-06 09:32 | 41.27416 | 28.74935 | 333 ft | 3 kts | 269° |
| 2026-05-06 09:32 | 41.27416 | 28.74938 | 333 ft | 0 kts | 269° |
| 2026-05-06 09:35 | 41.27416 | 28.74902 | 333 ft | 14 kts | 269° |
| 2026-05-06 09:35 | 41.27413 | 28.74681 | 339 ft | 27 kts | 269° |
| 2026-05-06 09:35 | 41.27410 | 28.74432 | 336 ft | 27 kts | 269° |
| 2026-05-06 09:35 | 41.27407 | 28.74184 | 335 ft | 27 kts | 269° |
| 2026-05-06 09:36 | 41.27403 | 28.73935 | 339 ft | 27 kts | 269° |
| 2026-05-06 09:36 | 41.27400 | 28.73686 | 339 ft | 27 kts | 269° |
| 2026-05-06 09:36 | 41.27397 | 28.73438 | 339 ft | 27 kts | 269° |
| 2026-05-06 09:36 | 41.27394 | 28.73207 | 339 ft | 20 kts | 268° |
| 2026-05-06 09:37 | 41.27352 | 28.73110 | 337 ft | 9 kts | 199° |
| 2026-05-06 09:37 | 41.27291 | 28.73102 | 339 ft | 9 kts | 185° |
| 2026-05-06 09:37 | 41.27206 | 28.73100 | 337 ft | 19 kts | 180° |
| 2026-05-06 09:37 | 41.27018 | 28.73103 | 335 ft | 32 kts | 179° |
| 2026-05-06 09:38 | 41.26822 | 28.73107 | 338 ft | 28 kts | 179° |
| 2026-05-06 09:38 | 41.26623 | 28.73111 | 337 ft | 28 kts | 179° |
| 2026-05-06 09:38 | 41.26426 | 28.73116 | 336 ft | 28 kts | 179° |
| 2026-05-06 09:38 | 41.26262 | 28.73118 | 334 ft | 17 kts | 188° |
| 2026-05-06 09:39 | 41.26224 | 28.73071 | 334 ft | 8 kts | 248° |
| 2026-05-06 09:39 | 41.26214 | 28.72971 | 337 ft | 15 kts | 268° |
| 2026-05-06 09:39 | 41.26220 | 28.72801 | 335 ft | 16 kts | 288° |
| 2026-05-06 09:39 | 41.26276 | 28.72776 | 337 ft | 13 kts | 356° |
| 2026-05-06 09:40 | 41.26632 | 28.72765 | 337 ft | 103 kts | 359° |
| 2026-05-06 09:40 | 41.27726 | 28.72763 | 435 ft | 198 kts | 0° |
| 2026-05-06 09:40 | 41.30660 | 28.72566 | 3198 ft | 211 kts | 357° |
| 2026-05-06 09:41 | 41.32187 | 28.72534 | 4057 ft | 233 kts | 359° |
| 2026-05-06 09:41 | 41.33892 | 28.72533 | 4628 ft | 253 kts | 359° |
| 2026-05-06 09:41 | 41.35632 | 28.72373 | 5464 ft | 254 kts | 343° |
| 2026-05-06 09:41 | 41.37110 | 28.71179 | 6314 ft | 260 kts | 314° |
| 2026-05-06 09:42 | 41.38001 | 28.69081 | 7206 ft | 268 kts | 289° |
| 2026-05-06 09:42 | 41.38197 | 28.66590 | 7974 ft | 276 kts | 272° |
| 2026-05-06 09:42 | 41.38152 | 28.63995 | 8728 ft | 283 kts | 272° |
| 2026-05-06 09:42 | 41.38107 | 28.61358 | 9643 ft | 286 kts | 272° |
| 2026-05-06 09:43 | 41.37829 | 28.58723 | 10344 ft | 297 kts | 251° |
| 2026-05-06 09:43 | 41.36648 | 28.56344 | 10687 ft | 326 kts | 224° |
| 2026-05-06 09:43 | 41.34595 | 28.54820 | 10900 ft | 357 kts | 195° |
| 2026-05-06 09:43 | 41.32047 | 28.54558 | 11132 ft | 381 kts | 176° |
| 2026-05-06 09:44 | 41.29352 | 28.54872 | 11749 ft | 394 kts | 175° |
| 2026-05-06 09:44 | 41.26646 | 28.55393 | 12350 ft | 399 kts | 161° |
| 2026-05-06 09:44 | 41.24213 | 28.57157 | 13162 ft | 401 kts | 139° |
| 2026-05-06 09:44 | 41.22285 | 28.59823 | 14134 ft | 401 kts | 126° |
| 2026-05-06 09:45 | 41.20618 | 28.62822 | 14866 ft | 407 kts | 123° |
| 2026-05-06 09:45 | 41.18967 | 28.65916 | 15641 ft | 413 kts | 123° |
| 2026-05-06 09:45 | 41.17303 | 28.69038 | 16504 ft | 417 kts | 123° |
| 2026-05-06 09:45 | 41.15599 | 28.72193 | 17317 ft | 423 kts | 124° |
| 2026-05-06 09:46 | 41.13858 | 28.75371 | 18086 ft | 429 kts | 124° |
| 2026-05-06 09:46 | 41.12085 | 28.78581 | 18820 ft | 434 kts | 124° |
| 2026-05-06 09:46 | 41.10250 | 28.81776 | 19544 ft | 438 kts | 128° |
| 2026-05-06 09:46 | 41.08167 | 28.84745 | 20277 ft | 442 kts | 134° |
| 2026-05-06 09:47 | 41.05956 | 28.87602 | 20982 ft | 446 kts | 135° |
| 2026-05-06 09:47 | 41.03714 | 28.90472 | 21659 ft | 450 kts | 135° |
| 2026-05-06 09:47 | 41.01457 | 28.93370 | 22356 ft | 454 kts | 135° |
| 2026-05-06 09:47 | 40.99193 | 28.96296 | 23051 ft | 457 kts | 135° |
| 2026-05-06 09:48 | 40.96911 | 28.99259 | 23716 ft | 461 kts | 135° |
| 2026-05-06 09:48 | 40.94615 | 29.02245 | 24235 ft | 465 kts | 135° |
| 2026-05-06 09:48 | 40.92299 | 29.05259 | 24762 ft | 469 kts | 135° |
| 2026-05-06 09:48 | 40.89967 | 29.08288 | 25285 ft | 472 kts | 135° |
| 2026-05-06 09:49 | 40.87628 | 29.11350 | 25783 ft | 474 kts | 133° |
| 2026-05-06 09:49 | 40.85568 | 29.14770 | 26214 ft | 478 kts | 122° |
| 2026-05-06 09:49 | 40.83957 | 29.18624 | 26692 ft | 481 kts | 113° |
| 2026-05-06 09:49 | 40.82795 | 29.22757 | 27178 ft | 482 kts | 104° |
| 2026-05-06 09:50 | 40.81963 | 29.27052 | 27653 ft | 484 kts | 103° |
| 2026-05-06 09:50 | 40.81158 | 29.31384 | 28098 ft | 488 kts | 103° |
| 2026-05-06 09:50 | 40.80346 | 29.35701 | 28509 ft | 492 kts | 103° |
| 2026-05-06 09:50 | 40.79499 | 29.40093 | 28914 ft | 495 kts | 103° |
| 2026-05-06 09:51 | 40.78628 | 29.44499 | 29319 ft | 498 kts | 104° |
| 2026-05-06 09:51 | 40.77740 | 29.48926 | 29689 ft | 501 kts | 104° |
| 2026-05-06 09:51 | 40.76840 | 29.53390 | 30029 ft | 504 kts | 104° |
| 2026-05-06 09:51 | 40.75935 | 29.57871 | 30371 ft | 506 kts | 104° |
| 2026-05-06 09:52 | 40.75029 | 29.62357 | 30778 ft | 505 kts | 104° |
| 2026-05-06 09:52 | 40.74149 | 29.66821 | 31211 ft | 503 kts | 102° |
| 2026-05-06 09:52 | 40.73516 | 29.71347 | 31621 ft | 501 kts | 96° |
| 2026-05-06 09:52 | 40.73203 | 29.75921 | 32001 ft | 499 kts | 90° |
| 2026-05-06 09:53 | 40.73156 | 29.80486 | 32396 ft | 498 kts | 89° |
| 2026-05-06 09:53 | 40.73131 | 29.85049 | 32783 ft | 498 kts | 89° |
| 2026-05-06 09:53 | 40.73090 | 29.89608 | 33165 ft | 497 kts | 89° |
| 2026-05-06 09:53 | 40.73025 | 29.94157 | 33555 ft | 496 kts | 89° |
| 2026-05-06 09:54 | 40.72946 | 29.98693 | 33939 ft | 495 kts | 89° |
| 2026-05-06 09:54 | 40.72762 | 30.03229 | 34256 ft | 496 kts | 95° |
| 2026-05-06 09:54 | 40.72238 | 30.07723 | 34524 ft | 497 kts | 100° |
| 2026-05-06 09:54 | 40.71419 | 30.12156 | 34774 ft | 499 kts | 106° |
| 2026-05-06 09:55 | 40.70281 | 30.16491 | 34993 ft | 501 kts | 109° |
| 2026-05-06 09:55 | 40.69079 | 30.20813 | 35053 ft | 505 kts | 108° |
| 2026-05-06 09:55 | 40.66878 | 30.29593 | 35097 ft | 502 kts | 102° |
| 2026-05-06 09:56 | 40.65788 | 30.38586 | 35101 ft | 495 kts | 94° |
| 2026-05-06 09:56 | 40.65102 | 30.47607 | 35105 ft | 495 kts | 94° |
| 2026-05-06 09:57 | 40.64356 | 30.56614 | 35104 ft | 495 kts | 94° |
| 2026-05-06 09:57 | 40.63581 | 30.65576 | 35111 ft | 496 kts | 94° |
| 2026-05-06 09:58 | 40.62475 | 30.74565 | 35105 ft | 500 kts | 103° |
| 2026-05-06 09:58 | 40.60575 | 30.83389 | 35103 ft | 502 kts | 104° |
| 2026-05-06 09:59 | 40.58645 | 30.92219 | 35107 ft | 503 kts | 104° |
| 2026-05-06 09:59 | 40.57058 | 30.99639 | 35106 ft | 504 kts | 103° |
| 2026-05-06 10:00 | 40.55182 | 31.08464 | 35101 ft | 505 kts | 103° |
| 2026-05-06 10:00 | 40.53280 | 31.17369 | 35088 ft | 506 kts | 103° |
| 2026-05-06 10:01 | 40.51370 | 31.26251 | 35102 ft | 505 kts | 103° |
| 2026-05-06 10:01 | 40.49450 | 31.35143 | 35096 ft | 506 kts | 103° |
| 2026-05-06 10:02 | 40.47524 | 31.44043 | 35228 ft | 506 kts | 103° |
| 2026-05-06 10:02 | 40.46557 | 31.48494 | 35088 ft | 506 kts | 103° |
| 2026-05-06 10:02 | 40.45591 | 31.52936 | 35089 ft | 506 kts | 103° |
| 2026-05-06 10:03 | 40.43655 | 31.61825 | 35105 ft | 506 kts | 103° |
| 2026-05-06 10:03 | 40.41713 | 31.70712 | 35099 ft | 507 kts | 103° |
| 2026-05-06 10:04 | 40.39760 | 31.79612 | 35102 ft | 508 kts | 103° |
| 2026-05-06 10:04 | 40.37798 | 31.88522 | 35088 ft | 509 kts | 103° |
| 2026-05-06 10:05 | 40.35822 | 31.97431 | 35105 ft | 510 kts | 103° |
| 2026-05-06 10:05 | 40.34038 | 32.06398 | 35082 ft | 506 kts | 94° |
| 2026-05-06 10:06 | 40.33789 | 32.15522 | 35083 ft | 498 kts | 81° |
| 2026-05-06 10:06 | 40.34802 | 32.24457 | 35082 ft | 495 kts | 76° |
| 2026-05-06 10:07 | 40.35934 | 32.33368 | 35093 ft | 496 kts | 76° |
| 2026-05-06 10:07 | 40.37030 | 32.42306 | 35087 ft | 496 kts | 77° |
| 2026-05-06 10:08 | 40.38077 | 32.51194 | 35090 ft | 496 kts | 77° |
| 2026-05-06 10:08 | 40.39121 | 32.60194 | 35087 ft | 496 kts | 77° |
| 2026-05-06 10:09 | 40.40146 | 32.69082 | 35086 ft | 496 kts | 77° |
| 2026-05-06 10:09 | 40.41171 | 32.78022 | 35089 ft | 496 kts | 77° |
| 2026-05-06 10:10 | 40.42191 | 32.86975 | 35094 ft | 496 kts | 78° |
| 2026-05-06 10:10 | 40.43203 | 32.95928 | 35090 ft | 496 kts | 78° |
| 2026-05-06 10:11 | 40.44210 | 33.04888 | 35089 ft | 496 kts | 78° |
| 2026-05-06 10:11 | 40.45208 | 33.13837 | 35088 ft | 495 kts | 78° |
| 2026-05-06 10:12 | 40.46199 | 33.22784 | 35093 ft | 495 kts | 78° |
| 2026-05-06 10:12 | 40.47182 | 33.31733 | 35091 ft | 495 kts | 78° |
| 2026-05-06 10:13 | 40.48156 | 33.40664 | 35100 ft | 494 kts | 78° |
| 2026-05-06 10:13 | 40.49126 | 33.49609 | 35101 ft | 495 kts | 79° |
| 2026-05-06 10:14 | 40.50089 | 33.58561 | 35098 ft | 495 kts | 79° |
| 2026-05-06 10:14 | 40.51043 | 33.67514 | 35101 ft | 495 kts | 79° |
| 2026-05-06 10:15 | 40.51992 | 33.76473 | 35103 ft | 495 kts | 79° |
| 2026-05-06 10:15 | 40.52933 | 33.85422 | 35096 ft | 495 kts | 79° |
| 2026-05-06 10:16 | 40.53860 | 33.94320 | 35103 ft | 494 kts | 79° |
| 2026-05-06 10:16 | 40.54787 | 34.03277 | 35094 ft | 494 kts | 80° |
| 2026-05-06 10:17 | 40.55708 | 34.12234 | 35097 ft | 494 kts | 80° |
| 2026-05-06 10:17 | 40.56622 | 34.21204 | 35097 ft | 495 kts | 80° |
| 2026-05-06 10:18 | 40.57528 | 34.30175 | 35096 ft | 495 kts | 80° |
| 2026-05-06 10:18 | 40.58430 | 34.39161 | 35086 ft | 496 kts | 80° |
| 2026-05-06 10:19 | 40.59325 | 34.48159 | 35088 ft | 496 kts | 81° |
| 2026-05-06 10:19 | 40.59484 | 34.49757 | 35090 ft | 496 kts | 81° |
| 2026-05-06 10:20 | 40.60303 | 34.58069 | 35099 ft | 501 kts | 81° |
| 2026-05-06 10:20 | 40.61200 | 34.67232 | 35094 ft | 509 kts | 81° |
| 2026-05-06 10:21 | 40.62104 | 34.76547 | 35088 ft | 516 kts | 81° |
| 2026-05-06 10:21 | 40.63009 | 34.85961 | 35086 ft | 520 kts | 81° |
| 2026-05-06 10:22 | 40.63911 | 34.95427 | 35080 ft | 523 kts | 81° |
| 2026-05-06 10:22 | 40.64808 | 35.04935 | 35075 ft | 523 kts | 82° |
| 2026-05-06 10:23 | 40.65696 | 35.14424 | 35074 ft | 522 kts | 82° |
| 2026-05-06 10:23 | 40.66573 | 35.23885 | 35064 ft | 520 kts | 82° |
| 2026-05-06 10:24 | 40.67441 | 35.33323 | 35083 ft | 518 kts | 82° |
| 2026-05-06 10:24 | 40.68297 | 35.42714 | 35073 ft | 516 kts | 82° |
| 2026-05-06 10:25 | 40.69138 | 35.52031 | 35081 ft | 515 kts | 82° |
| 2026-05-06 10:25 | 40.69977 | 35.61411 | 35081 ft | 515 kts | 82° |
| 2026-05-06 10:26 | 40.70808 | 35.70785 | 35079 ft | 515 kts | 83° |
| 2026-05-06 10:26 | 40.71631 | 35.80165 | 35086 ft | 515 kts | 83° |
| 2026-05-06 10:27 | 40.72448 | 35.89556 | 35089 ft | 516 kts | 83° |
| 2026-05-06 10:27 | 40.73257 | 35.98951 | 35078 ft | 516 kts | 83° |
| 2026-05-06 10:28 | 40.74059 | 36.08358 | 35090 ft | 516 kts | 83° |
| 2026-05-06 10:28 | 40.74854 | 36.17770 | 35095 ft | 517 kts | 83° |
| 2026-05-06 10:29 | 40.75642 | 36.27199 | 35094 ft | 517 kts | 84° |
| 2026-05-06 10:29 | 40.76423 | 36.36629 | 35110 ft | 517 kts | 84° |
| 2026-05-06 10:30 | 40.77196 | 36.46061 | 35076 ft | 517 kts | 83° |
| 2026-05-06 10:30 | 40.77961 | 36.55489 | 35101 ft | 518 kts | 84° |
| 2026-05-06 10:31 | 40.78719 | 36.64938 | 35108 ft | 519 kts | 84° |
| 2026-05-06 10:31 | 40.79472 | 36.74410 | 35111 ft | 519 kts | 84° |
| 2026-05-06 10:32 | 40.80218 | 36.83902 | 35113 ft | 520 kts | 84° |
| 2026-05-06 10:32 | 40.80957 | 36.93400 | 35111 ft | 521 kts | 84° |
| 2026-05-06 10:33 | 40.81688 | 37.02907 | 35116 ft | 521 kts | 84° |
| 2026-05-06 10:33 | 40.82408 | 37.12364 | 35119 ft | 521 kts | 84° |
| 2026-05-06 10:34 | 40.83124 | 37.21875 | 35114 ft | 521 kts | 84° |
| 2026-05-06 10:34 | 40.83831 | 37.31381 | 35124 ft | 521 kts | 84° |
| 2026-05-06 10:35 | 40.84531 | 37.40890 | 35128 ft | 520 kts | 85° |
| 2026-05-06 10:35 | 40.85206 | 37.50164 | 35135 ft | 520 kts | 85° |
| 2026-05-06 10:36 | 40.85890 | 37.59669 | 35128 ft | 520 kts | 85° |
| 2026-05-06 10:36 | 40.86565 | 37.69165 | 35135 ft | 519 kts | 85° |
| 2026-05-06 10:37 | 40.87232 | 37.78667 | 35143 ft | 520 kts | 85° |
| 2026-05-06 10:37 | 40.87893 | 37.88179 | 35148 ft | 519 kts | 85° |
| 2026-05-06 10:38 | 40.88546 | 37.97687 | 35160 ft | 520 kts | 85° |
| 2026-05-06 10:38 | 40.89185 | 38.07133 | 35155 ft | 520 kts | 85° |
| 2026-05-06 10:39 | 40.89822 | 38.16643 | 35167 ft | 520 kts | 85° |
| 2026-05-06 10:39 | 40.90452 | 38.26178 | 35166 ft | 522 kts | 85° |
| 2026-05-06 10:40 | 40.91076 | 38.35737 | 35141 ft | 522 kts | 86° |
| 2026-05-06 10:40 | 40.91691 | 38.45277 | 35148 ft | 520 kts | 86° |
| 2026-05-06 10:41 | 40.92297 | 38.54806 | 35149 ft | 520 kts | 86° |
| 2026-05-06 10:41 | 40.92894 | 38.64323 | 35144 ft | 520 kts | 86° |
| 2026-05-06 10:42 | 40.93484 | 38.73845 | 35147 ft | 519 kts | 86° |
| 2026-05-06 10:42 | 40.94066 | 38.83368 | 35140 ft | 520 kts | 86° |
| 2026-05-06 10:43 | 40.94640 | 38.92906 | 35140 ft | 520 kts | 86° |
| 2026-05-06 10:44 | 40.95486 | 39.07190 | 35131 ft | 521 kts | 86° |
| 2026-05-06 10:44 | 40.96039 | 39.16679 | 35144 ft | 521 kts | 86° |
| 2026-05-06 10:45 | 40.96587 | 39.26250 | 35142 ft | 522 kts | 86° |
| 2026-05-06 10:45 | 40.97128 | 39.35830 | 35140 ft | 522 kts | 87° |
| 2026-05-06 10:46 | 40.97663 | 39.45427 | 35150 ft | 523 kts | 87° |
| 2026-05-06 10:46 | 40.98189 | 39.55027 | 35169 ft | 523 kts | 87° |
| 2026-05-06 10:47 | 40.98708 | 39.64645 | 35157 ft | 524 kts | 87° |
| 2026-05-06 10:47 | 40.99221 | 39.74266 | 35151 ft | 525 kts | 87° |
| 2026-05-06 10:48 | 41.00036 | 39.83857 | 35151 ft | 525 kts | 80° |
| 2026-05-06 10:48 | 41.01484 | 39.93342 | 35157 ft | 526 kts | 79° |
| 2026-05-06 10:49 | 41.02969 | 40.02819 | 35160 ft | 526 kts | 79° |
| 2026-05-06 10:49 | 41.04169 | 40.10718 | 35141 ft | 526 kts | 80° |
| 2026-05-06 10:50 | 41.05579 | 40.20220 | 35138 ft | 526 kts | 80° |
| 2026-05-06 10:50 | 41.07212 | 40.31356 | 35142 ft | 527 kts | 80° |
| 2026-05-06 10:51 | 41.08369 | 40.39283 | 35139 ft | 527 kts | 80° |
| 2026-05-06 10:51 | 41.09757 | 40.48833 | 35139 ft | 527 kts | 80° |
| 2026-05-06 10:52 | 41.11137 | 40.58383 | 35146 ft | 528 kts | 80° |
| 2026-05-06 10:52 | 41.12512 | 40.67952 | 35144 ft | 528 kts | 80° |
| 2026-05-06 10:53 | 41.13868 | 40.77455 | 35133 ft | 528 kts | 80° |
| 2026-05-06 10:53 | 41.15227 | 40.87035 | 35137 ft | 528 kts | 80° |
| 2026-05-06 10:54 | 41.16578 | 40.96619 | 35145 ft | 528 kts | 81° |
| 2026-05-06 10:54 | 41.17920 | 41.06203 | 35140 ft | 529 kts | 81° |
| 2026-05-06 10:55 | 41.19259 | 41.15815 | 35132 ft | 529 kts | 81° |
| 2026-05-06 10:55 | 41.20589 | 41.25433 | 35127 ft | 530 kts | 81° |
| 2026-05-06 10:56 | 41.21911 | 41.35053 | 35126 ft | 530 kts | 81° |
| 2026-05-06 10:56 | 41.23225 | 41.44677 | 35127 ft | 530 kts | 81° |
| 2026-05-06 10:57 | 41.24531 | 41.54306 | 35119 ft | 530 kts | 81° |
| 2026-05-06 10:57 | 41.25830 | 41.63952 | 35122 ft | 530 kts | 81° |
| 2026-05-06 10:58 | 41.27120 | 41.73587 | 35121 ft | 530 kts | 81° |
| 2026-05-06 10:58 | 41.28402 | 41.83231 | 35123 ft | 530 kts | 81° |
| 2026-05-06 10:59 | 41.29677 | 41.92874 | 35123 ft | 530 kts | 81° |
| 2026-05-06 10:59 | 41.30939 | 42.02536 | 35120 ft | 530 kts | 81° |
| 2026-05-06 11:00 | 41.32178 | 42.12207 | 35110 ft | 530 kts | 82° |
| 2026-05-06 11:00 | 41.33407 | 42.21882 | 35102 ft | 530 kts | 82° |
| 2026-05-06 11:01 | 41.34628 | 42.31541 | 35103 ft | 530 kts | 82° |
| 2026-05-06 11:01 | 41.35847 | 42.41231 | 35086 ft | 531 kts | 82° |
| 2026-05-06 11:02 | 41.37059 | 42.50933 | 35084 ft | 531 kts | 82° |
| 2026-05-06 11:02 | 41.38264 | 42.60652 | 35071 ft | 532 kts | 82° |
| 2026-05-06 11:03 | 41.39459 | 42.70367 | 35071 ft | 532 kts | 82° |
| 2026-05-06 11:03 | 41.40647 | 42.80091 | 35071 ft | 533 kts | 82° |
| 2026-05-06 11:04 | 41.41822 | 42.89774 | 35063 ft | 533 kts | 82° |
| 2026-05-06 11:04 | 41.42760 | 42.99561 | 35058 ft | 532 kts | 89° |
| 2026-05-06 11:05 | 41.42629 | 43.09400 | 35056 ft | 531 kts | 94° |
| 2026-05-06 11:05 | 41.42307 | 43.19219 | 35063 ft | 530 kts | 94° |
| 2026-05-06 11:06 | 41.42011 | 43.29048 | 35054 ft | 531 kts | 94° |
| 2026-05-06 11:06 | 41.41743 | 43.38883 | 35055 ft | 532 kts | 94° |
| 2026-05-06 11:07 | 41.41477 | 43.48738 | 35054 ft | 532 kts | 94° |
| 2026-05-06 11:07 | 41.41200 | 43.58586 | 35063 ft | 533 kts | 94° |
| 2026-05-06 11:08 | 41.40911 | 43.68466 | 35055 ft | 534 kts | 94° |
| 2026-05-06 11:08 | 41.40612 | 43.78346 | 35047 ft | 534 kts | 94° |
| 2026-05-06 11:09 | 41.40306 | 43.88171 | 35048 ft | 535 kts | 94° |
| 2026-05-06 11:09 | 41.39990 | 43.98075 | 35032 ft | 535 kts | 94° |
| 2026-05-06 11:10 | 41.39666 | 44.07979 | 35033 ft | 535 kts | 95° |
| 2026-05-06 11:10 | 41.39333 | 44.17884 | 35030 ft | 536 kts | 95° |
| 2026-05-06 11:11 | 41.38991 | 44.27806 | 35027 ft | 536 kts | 95° |
| 2026-05-06 11:11 | 41.38640 | 44.37732 | 35026 ft | 537 kts | 95° |
| 2026-05-06 11:12 | 41.38283 | 44.47599 | 35024 ft | 538 kts | 95° |
| 2026-05-06 11:12 | 41.37914 | 44.57545 | 35027 ft | 538 kts | 95° |
| 2026-05-06 11:13 | 41.37536 | 44.67502 | 35025 ft | 539 kts | 95° |
| 2026-05-06 11:13 | 41.37150 | 44.77467 | 35022 ft | 540 kts | 95° |
| 2026-05-06 11:14 | 41.36754 | 44.87451 | 35012 ft | 540 kts | 95° |
| 2026-05-06 11:14 | 41.36351 | 44.97436 | 35012 ft | 541 kts | 95° |
| 2026-05-06 11:15 | 41.35666 | 45.07402 | 35016 ft | 539 kts | 102° |
| 2026-05-06 11:15 | 41.33801 | 45.17003 | 35006 ft | 535 kts | 112° |
| 2026-05-06 11:16 | 41.31328 | 45.26333 | 35010 ft | 535 kts | 112° |
| 2026-05-06 11:16 | 41.28865 | 45.35690 | 35009 ft | 537 kts | 112° |
| 2026-05-06 11:17 | 41.26454 | 45.45026 | 35022 ft | 538 kts | 112° |
| 2026-05-06 11:17 | 41.24010 | 45.54490 | 35024 ft | 538 kts | 112° |
| 2026-05-06 11:18 | 41.21567 | 45.63893 | 35017 ft | 539 kts | 112° |
| 2026-05-06 11:18 | 41.19097 | 45.73288 | 35023 ft | 539 kts | 113° |
| 2026-05-06 11:19 | 41.16619 | 45.82608 | 35024 ft | 539 kts | 113° |
| 2026-05-06 11:19 | 41.14121 | 45.91979 | 35044 ft | 539 kts | 113° |
| 2026-05-06 11:20 | 41.11618 | 46.01349 | 35045 ft | 539 kts | 113° |
| 2026-05-06 11:20 | 41.09107 | 46.10720 | 35043 ft | 539 kts | 114° |
| 2026-05-06 11:21 | 41.06590 | 46.20075 | 35046 ft | 539 kts | 114° |
| 2026-05-06 11:21 | 41.04061 | 46.29443 | 35050 ft | 540 kts | 114° |
| 2026-05-06 11:22 | 41.01552 | 46.38811 | 35043 ft | 541 kts | 114° |
| 2026-05-06 11:22 | 40.99047 | 46.48226 | 35039 ft | 542 kts | 114° |
| 2026-05-06 11:23 | 40.96532 | 46.57625 | 35043 ft | 542 kts | 114° |
| 2026-05-06 11:23 | 40.94003 | 46.67022 | 35048 ft | 543 kts | 114° |
| 2026-05-06 11:24 | 40.91465 | 46.76420 | 35053 ft | 543 kts | 114° |
| 2026-05-06 11:24 | 40.88914 | 46.85818 | 35046 ft | 544 kts | 115° |
| 2026-05-06 11:25 | 40.86331 | 46.95221 | 35047 ft | 544 kts | 115° |
| 2026-05-06 11:25 | 40.83758 | 47.04551 | 35025 ft | 545 kts | 115° |
| 2026-05-06 11:26 | 40.81161 | 47.13957 | 35026 ft | 545 kts | 115° |
| 2026-05-06 11:26 | 40.78556 | 47.23345 | 35024 ft | 545 kts | 115° |
| 2026-05-06 11:27 | 40.75943 | 47.32737 | 35024 ft | 546 kts | 116° |
| 2026-05-06 11:27 | 40.73321 | 47.42123 | 35023 ft | 546 kts | 116° |
| 2026-05-06 11:28 | 40.70676 | 47.51511 | 35044 ft | 546 kts | 116° |
| 2026-05-06 11:28 | 40.68042 | 47.60815 | 35034 ft | 546 kts | 116° |
| 2026-05-06 11:29 | 40.65386 | 47.70177 | 35045 ft | 546 kts | 116° |
| 2026-05-06 11:29 | 40.62723 | 47.79531 | 35036 ft | 546 kts | 116° |
| 2026-05-06 11:30 | 40.60049 | 47.88894 | 35030 ft | 546 kts | 116° |
| 2026-05-06 11:30 | 40.57403 | 47.98257 | 35030 ft | 547 kts | 115° |
| 2026-05-06 11:31 | 40.55119 | 48.07830 | 35022 ft | 549 kts | 112° |
| 2026-05-06 11:31 | 40.52823 | 48.17398 | 35021 ft | 549 kts | 114° |
| 2026-05-06 11:32 | 40.50461 | 48.26933 | 35014 ft | 549 kts | 114° |
| 2026-05-06 11:32 | 40.48096 | 48.36468 | 35014 ft | 549 kts | 114° |
| 2026-05-06 11:33 | 40.45725 | 48.46018 | 35013 ft | 549 kts | 114° |
| 2026-05-06 11:33 | 40.43350 | 48.55552 | 35009 ft | 550 kts | 114° |
| 2026-05-06 11:34 | 40.40964 | 48.65086 | 35012 ft | 550 kts | 114° |
| 2026-05-06 11:34 | 40.38567 | 48.74625 | 35003 ft | 551 kts | 114° |
| 2026-05-06 11:35 | 40.36157 | 48.84180 | 34988 ft | 551 kts | 115° |
| 2026-05-06 11:35 | 40.33746 | 48.93706 | 34994 ft | 551 kts | 115° |
| 2026-05-06 11:36 | 40.31327 | 49.03225 | 34986 ft | 551 kts | 115° |
| 2026-05-06 11:36 | 40.28869 | 49.12715 | 35004 ft | 550 kts | 115° |
| 2026-05-06 11:37 | 40.26373 | 49.22196 | 34993 ft | 550 kts | 115° |
| 2026-05-06 11:37 | 40.23925 | 49.31683 | 34993 ft | 550 kts | 115° |
| 2026-05-06 11:38 | 40.21494 | 49.41175 | 34988 ft | 550 kts | 115° |
| 2026-05-06 11:38 | 40.19188 | 49.50659 | 34989 ft | 555 kts | 110° |
| 2026-05-06 11:39 | 40.17887 | 49.60695 | 34992 ft | 563 kts | 102° |
| 2026-05-06 11:39 | 40.17036 | 49.70871 | 34990 ft | 563 kts | 102° |
| 2026-05-06 11:40 | 40.16158 | 49.81046 | 34987 ft | 563 kts | 102° |
| 2026-05-06 11:40 | 40.15221 | 49.91212 | 34980 ft | 564 kts | 103° |
| 2026-05-06 11:41 | 40.14254 | 50.01393 | 34976 ft | 564 kts | 103° |
| 2026-05-06 11:41 | 40.13280 | 50.11556 | 34988 ft | 564 kts | 103° |
| 2026-05-06 11:42 | 40.12300 | 50.21749 | 34982 ft | 565 kts | 103° |
| 2026-05-06 11:42 | 40.11487 | 50.30140 | 34982 ft | 565 kts | 103° |
| 2026-05-06 11:43 | 40.10490 | 50.40351 | 34980 ft | 565 kts | 103° |
| 2026-05-06 11:43 | 40.09483 | 50.50552 | 34984 ft | 566 kts | 103° |
| 2026-05-06 11:44 | 40.07960 | 50.65822 | 34977 ft | 566 kts | 103° |
| 2026-05-06 11:44 | 40.06930 | 50.76023 | 34981 ft | 566 kts | 103° |
| 2026-05-06 11:45 | 40.05894 | 50.86205 | 34976 ft | 566 kts | 103° |
| 2026-05-06 11:45 | 40.04847 | 50.96392 | 34977 ft | 566 kts | 104° |
| 2026-05-06 11:46 | 40.03791 | 51.06581 | 34977 ft | 566 kts | 104° |
| 2026-05-06 11:46 | 40.02735 | 51.16689 | 34972 ft | 566 kts | 104° |
| 2026-05-06 11:47 | 40.01655 | 51.26926 | 34974 ft | 566 kts | 104° |
| 2026-05-06 11:47 | 40.00583 | 51.37018 | 34975 ft | 565 kts | 104° |
| 2026-05-06 11:48 | 39.99494 | 51.47183 | 34969 ft | 565 kts | 104° |
| 2026-05-06 11:48 | 39.97961 | 51.57151 | 34962 ft | 558 kts | 110° |
| 2026-05-06 11:49 | 39.96072 | 51.66945 | 34951 ft | 557 kts | 111° |
| 2026-05-06 11:49 | 39.94178 | 51.76732 | 34950 ft | 557 kts | 110° |
| 2026-05-06 11:50 | 39.92317 | 51.86525 | 34958 ft | 557 kts | 110° |
| 2026-05-06 11:50 | 39.90467 | 51.96307 | 34947 ft | 556 kts | 110° |
| 2026-05-06 11:51 | 39.88609 | 52.06074 | 34940 ft | 556 kts | 110° |
| 2026-05-06 11:51 | 39.86741 | 52.15827 | 34938 ft | 555 kts | 110° |
| 2026-05-06 11:52 | 39.84863 | 52.25572 | 34929 ft | 555 kts | 110° |
| 2026-05-06 11:52 | 39.82977 | 52.35319 | 34932 ft | 555 kts | 110° |
| 2026-05-06 11:53 | 39.81085 | 52.45046 | 34924 ft | 555 kts | 110° |
| 2026-05-06 11:53 | 39.79187 | 52.54760 | 34920 ft | 554 kts | 110° |
| 2026-05-06 11:54 | 39.77279 | 52.64478 | 34912 ft | 554 kts | 110° |
| 2026-05-06 11:54 | 39.75366 | 52.74181 | 34904 ft | 551 kts | 110° |
| 2026-05-06 11:55 | 39.73466 | 52.83772 | 34920 ft | 551 kts | 110° |
| 2026-05-06 11:55 | 39.71560 | 52.93471 | 34912 ft | 556 kts | 110° |
| 2026-05-06 11:56 | 39.69666 | 53.03221 | 34902 ft | 558 kts | 110° |
| 2026-05-06 11:56 | 39.67758 | 53.13001 | 34893 ft | 559 kts | 110° |
| 2026-05-06 11:57 | 39.65834 | 53.22776 | 34885 ft | 559 kts | 110° |
| 2026-05-06 11:57 | 39.63899 | 53.32545 | 34880 ft | 558 kts | 111° |
| 2026-05-06 11:58 | 39.61967 | 53.42254 | 34880 ft | 558 kts | 111° |
| 2026-05-06 11:58 | 39.60018 | 53.52004 | 34881 ft | 558 kts | 111° |
| 2026-05-06 11:59 | 39.58063 | 53.61737 | 34876 ft | 558 kts | 111° |
| 2026-05-06 11:59 | 39.56100 | 53.71467 | 34871 ft | 558 kts | 111° |
| 2026-05-06 12:00 | 39.54129 | 53.81193 | 34865 ft | 558 kts | 111° |
| 2026-05-06 12:00 | 39.52148 | 53.90920 | 34858 ft | 558 kts | 111° |
| 2026-05-06 12:01 | 39.50159 | 54.00649 | 34852 ft | 558 kts | 111° |
| 2026-05-06 12:01 | 39.48169 | 54.10274 | 34848 ft | 558 kts | 111° |
| 2026-05-06 12:02 | 39.46137 | 54.19972 | 34857 ft | 557 kts | 111° |
| 2026-05-06 12:02 | 39.44089 | 54.29701 | 34849 ft | 557 kts | 111° |
| 2026-05-06 12:03 | 39.42065 | 54.39297 | 34859 ft | 556 kts | 111° |
| 2026-05-06 12:03 | 39.40025 | 54.48931 | 34853 ft | 556 kts | 111° |
| 2026-05-06 12:04 | 39.37977 | 54.58559 | 34862 ft | 555 kts | 111° |
| 2026-05-06 12:04 | 39.35921 | 54.68178 | 34848 ft | 555 kts | 111° |
| 2026-05-06 12:05 | 39.33859 | 54.77787 | 34845 ft | 555 kts | 111° |
| 2026-05-06 12:05 | 39.31790 | 54.87383 | 34835 ft | 555 kts | 111° |
| 2026-05-06 12:06 | 39.29715 | 54.96960 | 34832 ft | 555 kts | 111° |
| 2026-05-06 12:06 | 39.27624 | 55.06576 | 34830 ft | 555 kts | 111° |
| 2026-05-06 12:07 | 39.25529 | 55.16171 | 34831 ft | 555 kts | 111° |
| 2026-05-06 12:07 | 39.23427 | 55.25751 | 34828 ft | 555 kts | 111° |
| 2026-05-06 12:08 | 39.21319 | 55.35321 | 34828 ft | 555 kts | 111° |
| 2026-05-06 12:08 | 39.19202 | 55.44886 | 34823 ft | 555 kts | 111° |
| 2026-05-06 12:09 | 39.17091 | 55.54394 | 34819 ft | 555 kts | 111° |
| 2026-05-06 12:09 | 39.14941 | 55.64023 | 34821 ft | 555 kts | 111° |
| 2026-05-06 12:10 | 39.12817 | 55.73494 | 34827 ft | 555 kts | 111° |
| 2026-05-06 12:10 | 39.10670 | 55.83038 | 34817 ft | 555 kts | 111° |
| 2026-05-06 12:11 | 39.08514 | 55.92587 | 34816 ft | 555 kts | 111° |
| 2026-05-06 12:11 | 39.06349 | 56.02131 | 34812 ft | 555 kts | 111° |
| 2026-05-06 12:12 | 39.04180 | 56.11651 | 34811 ft | 555 kts | 111° |
| 2026-05-06 12:12 | 39.02004 | 56.21170 | 34807 ft | 555 kts | 111° |
| 2026-05-06 12:13 | 38.99819 | 56.30684 | 34806 ft | 554 kts | 112° |
| 2026-05-06 12:13 | 38.97380 | 56.40045 | 34802 ft | 551 kts | 115° |
| 2026-05-06 12:14 | 38.94752 | 56.49282 | 34803 ft | 550 kts | 115° |
| 2026-05-06 12:14 | 38.92144 | 56.58528 | 34800 ft | 551 kts | 115° |
| 2026-05-06 12:15 | 38.89579 | 56.67787 | 34798 ft | 551 kts | 114° |
| 2026-05-06 12:15 | 38.87020 | 56.77056 | 34799 ft | 551 kts | 114° |
| 2026-05-06 12:16 | 38.84446 | 56.86328 | 34799 ft | 552 kts | 114° |
| 2026-05-06 12:16 | 38.81861 | 56.95592 | 34793 ft | 552 kts | 114° |
| 2026-05-06 12:17 | 38.79262 | 57.04869 | 34784 ft | 553 kts | 114° |
| 2026-05-06 12:17 | 38.76677 | 57.14067 | 34787 ft | 554 kts | 114° |
| 2026-05-06 12:18 | 38.74058 | 57.23355 | 34780 ft | 554 kts | 114° |
| 2026-05-06 12:18 | 38.71432 | 57.32633 | 34775 ft | 554 kts | 114° |
| 2026-05-06 12:19 | 38.68798 | 57.41908 | 34760 ft | 554 kts | 114° |
| 2026-05-06 12:19 | 38.66160 | 57.51167 | 34762 ft | 554 kts | 114° |
| 2026-05-06 12:20 | 38.63523 | 57.60393 | 34757 ft | 553 kts | 114° |
| 2026-05-06 12:20 | 38.60764 | 57.69564 | 34747 ft | 550 kts | 118° |
| 2026-05-06 12:21 | 38.57641 | 57.78462 | 34745 ft | 548 kts | 119° |
| 2026-05-06 12:21 | 38.54475 | 57.87321 | 34747 ft | 548 kts | 119° |
| 2026-05-06 12:22 | 38.51338 | 57.96186 | 34738 ft | 548 kts | 118° |
| 2026-05-06 12:22 | 38.48211 | 58.05055 | 34742 ft | 548 kts | 118° |
| 2026-05-06 12:23 | 38.45073 | 58.13927 | 34736 ft | 548 kts | 118° |
| 2026-05-06 12:23 | 38.41931 | 58.22775 | 34732 ft | 548 kts | 118° |
| 2026-05-06 12:24 | 38.38610 | 58.31407 | 34729 ft | 543 kts | 125° |
| 2026-05-06 12:24 | 38.34713 | 58.39639 | 34734 ft | 543 kts | 126° |
| 2026-05-06 12:25 | 38.30765 | 58.47843 | 34726 ft | 544 kts | 126° |
| 2026-05-06 12:25 | 38.26844 | 58.56077 | 34722 ft | 544 kts | 125° |
| 2026-05-06 12:26 | 38.22939 | 58.64324 | 34721 ft | 544 kts | 125° |
| 2026-05-06 12:26 | 38.19033 | 58.72561 | 34718 ft | 544 kts | 125° |
| 2026-05-06 12:27 | 38.15117 | 58.80788 | 34709 ft | 544 kts | 125° |
| 2026-05-06 12:27 | 38.11193 | 58.89005 | 34708 ft | 544 kts | 125° |
| 2026-05-06 12:28 | 38.07256 | 58.97228 | 34704 ft | 544 kts | 125° |
| 2026-05-06 12:28 | 38.03320 | 59.05430 | 34706 ft | 544 kts | 125° |
| 2026-05-06 12:29 | 37.99377 | 59.13627 | 34706 ft | 544 kts | 125° |
| 2026-05-06 12:29 | 37.95427 | 59.21817 | 34701 ft | 545 kts | 125° |
| 2026-05-06 12:30 | 37.91470 | 59.30007 | 34696 ft | 545 kts | 125° |
| 2026-05-06 12:30 | 37.87346 | 59.38017 | 34699 ft | 541 kts | 130° |
| 2026-05-06 12:31 | 37.82783 | 59.45574 | 34699 ft | 540 kts | 131° |
| 2026-05-06 12:31 | 37.78190 | 59.53078 | 34696 ft | 541 kts | 131° |
| 2026-05-06 12:32 | 37.74379 | 59.59351 | 34698 ft | 541 kts | 131° |
| 2026-05-06 12:32 | 37.69804 | 59.66918 | 34703 ft | 541 kts | 131° |
| 2026-05-06 12:33 | 37.65235 | 59.74474 | 34717 ft | 542 kts | 131° |
| 2026-05-06 12:33 | 37.60656 | 59.82022 | 34720 ft | 542 kts | 131° |
| 2026-05-06 12:34 | 37.56070 | 59.89560 | 34723 ft | 542 kts | 131° |
| 2026-05-06 12:34 | 37.51479 | 59.97087 | 34722 ft | 542 kts | 131° |
| 2026-05-06 12:35 | 37.46878 | 60.04615 | 34725 ft | 542 kts | 131° |
| 2026-05-06 12:35 | 37.42282 | 60.12118 | 34729 ft | 541 kts | 131° |
| 2026-05-06 12:36 | 37.37682 | 60.19609 | 34740 ft | 541 kts | 131° |
| 2026-05-06 12:36 | 37.33078 | 60.27092 | 34744 ft | 541 kts | 131° |
| 2026-05-06 12:37 | 37.28492 | 60.34529 | 34744 ft | 541 kts | 131° |
| 2026-05-06 12:37 | 37.23873 | 60.42000 | 34754 ft | 542 kts | 131° |
| 2026-05-06 12:38 | 37.19251 | 60.49462 | 34752 ft | 542 kts | 131° |
| 2026-05-06 12:38 | 37.14619 | 60.56922 | 34758 ft | 543 kts | 131° |
| 2026-05-06 12:39 | 37.09978 | 60.64381 | 34766 ft | 543 kts | 131° |
| 2026-05-06 12:39 | 37.05328 | 60.71839 | 34776 ft | 544 kts | 131° |
| 2026-05-06 12:40 | 37.00663 | 60.79307 | 34774 ft | 544 kts | 131° |
| 2026-05-06 12:40 | 36.96062 | 60.86822 | 34775 ft | 545 kts | 128° |
| 2026-05-06 12:41 | 36.91703 | 60.94577 | 34773 ft | 546 kts | 127° |
| 2026-05-06 12:41 | 36.87377 | 61.02368 | 34780 ft | 546 kts | 127° |
| 2026-05-06 12:42 | 36.83025 | 61.10127 | 34775 ft | 546 kts | 128° |
| 2026-05-06 12:42 | 36.78647 | 61.17871 | 34776 ft | 546 kts | 128° |
| 2026-05-06 12:43 | 36.74264 | 61.25604 | 34773 ft | 546 kts | 128° |
| 2026-05-06 12:43 | 36.69887 | 61.33317 | 34776 ft | 546 kts | 128° |
| 2026-05-06 12:44 | 36.65500 | 61.41033 | 34772 ft | 546 kts | 128° |
| 2026-05-06 12:44 | 36.61102 | 61.48731 | 34776 ft | 546 kts | 128° |
| 2026-05-06 12:45 | 36.56627 | 61.56374 | 34771 ft | 546 kts | 129° |
| 2026-05-06 12:46 | 36.49882 | 61.67786 | 34777 ft | 546 kts | 129° |
| 2026-05-06 12:46 | 36.45386 | 61.75403 | 34776 ft | 547 kts | 128° |
| 2026-05-06 12:47 | 36.40893 | 61.83011 | 34780 ft | 547 kts | 129° |
| 2026-05-06 12:47 | 36.36417 | 61.90574 | 34781 ft | 547 kts | 128° |
| 2026-05-06 12:48 | 36.31908 | 61.98173 | 34783 ft | 547 kts | 129° |
| 2026-05-06 12:48 | 36.27384 | 62.05778 | 34787 ft | 548 kts | 128° |
| 2026-05-06 12:49 | 36.22856 | 62.13374 | 34793 ft | 549 kts | 128° |
| 2026-05-06 12:49 | 36.18317 | 62.20972 | 34800 ft | 549 kts | 128° |
| 2026-05-06 12:50 | 36.13765 | 62.28574 | 34796 ft | 549 kts | 128° |
| 2026-05-06 12:50 | 36.09212 | 62.36162 | 34802 ft | 549 kts | 128° |
| 2026-05-06 12:51 | 36.04655 | 62.43740 | 34806 ft | 549 kts | 128° |
| 2026-05-06 12:51 | 36.00088 | 62.51318 | 34806 ft | 549 kts | 128° |
| 2026-05-06 12:52 | 35.95524 | 62.58874 | 34810 ft | 549 kts | 128° |
| 2026-05-06 12:52 | 35.90956 | 62.66420 | 34804 ft | 549 kts | 128° |
| 2026-05-06 12:53 | 35.86381 | 62.73960 | 34805 ft | 548 kts | 128° |
| 2026-05-06 12:53 | 35.81810 | 62.81479 | 34807 ft | 548 kts | 128° |
| 2026-05-06 12:54 | 35.77228 | 62.88999 | 34815 ft | 548 kts | 128° |
| 2026-05-06 12:54 | 35.72650 | 62.96497 | 34820 ft | 548 kts | 128° |
| 2026-05-06 12:55 | 35.68066 | 63.03988 | 34823 ft | 548 kts | 128° |
| 2026-05-06 12:55 | 35.63479 | 63.11469 | 34836 ft | 548 kts | 128° |
| 2026-05-06 12:56 | 35.58886 | 63.18946 | 34832 ft | 548 kts | 129° |
| 2026-05-06 12:56 | 35.54295 | 63.26344 | 34840 ft | 548 kts | 129° |
| 2026-05-06 12:57 | 35.49635 | 63.33773 | 34849 ft | 548 kts | 129° |
| 2026-05-06 12:57 | 35.44983 | 63.41183 | 34860 ft | 549 kts | 129° |
| 2026-05-06 12:58 | 35.40326 | 63.48601 | 34877 ft | 549 kts | 129° |
| 2026-05-06 12:58 | 35.35665 | 63.56012 | 34887 ft | 549 kts | 129° |
| 2026-05-06 12:59 | 35.30989 | 63.63431 | 34900 ft | 549 kts | 129° |
| 2026-05-06 12:59 | 35.26319 | 63.70833 | 34909 ft | 550 kts | 129° |
| 2026-05-06 13:00 | 35.21647 | 63.78243 | 34925 ft | 550 kts | 129° |
| 2026-05-06 13:00 | 35.16970 | 63.85649 | 34949 ft | 551 kts | 129° |
| 2026-05-06 13:01 | 35.12285 | 63.93053 | 34944 ft | 551 kts | 129° |
| 2026-05-06 13:01 | 35.07585 | 64.00461 | 34967 ft | 551 kts | 129° |
| 2026-05-06 13:02 | 35.02884 | 64.07855 | 34970 ft | 552 kts | 129° |
| 2026-05-06 13:02 | 34.98180 | 64.15240 | 34985 ft | 551 kts | 129° |
| 2026-05-06 13:03 | 34.93472 | 64.22613 | 35014 ft | 551 kts | 129° |
| 2026-05-06 13:03 | 34.88764 | 64.29973 | 35013 ft | 551 kts | 129° |
| 2026-05-06 13:04 | 34.84078 | 64.37283 | 35033 ft | 551 kts | 129° |
| 2026-05-06 13:04 | 34.79334 | 64.44667 | 35041 ft | 551 kts | 129° |
| 2026-05-06 13:05 | 34.74639 | 64.51962 | 35070 ft | 551 kts | 129° |
| 2026-05-06 13:05 | 34.70677 | 64.58104 | 35050 ft | 551 kts | 129° |